Worcester, United Kingdom
Current Conditions -  °F | °C
As of 7:20 PM on Wednesday 22 Oct 2014 (Local Time) from EGBJ Reporting Station
Few Clouds Few Clouds  
Wind Chill: 12°   Ceiling: Unl
Heat Index: 12°   Visibility: 6mi
Dew Point:   Wind: 7mph
Humidity: 82%   Direction: 220°SW
Pressure: 30.21"   Gusts: NA
Location:  52.19°N, 2.22°W
Report Text: EGBJ 221820Z 22006KT 9999 FEW035 12/09 Q1023
Loading
Personal Weather Stations






























Interactive Weather Map
Tropical Storm Tracking
New forecast layout! Learn more

10-Day Weather Forecast

Advertisements
Track Severe Weather on mobile